Time;durP1;ratioP1;P1;durP2;ratioP2;P2;SDS_P1;SDS_P2;PMS_P1;PMS_P2;Temp;Humidity;BMP_temperature;BMP_pressure;BME280_temperature;BME280_humidity;BME280_pressure;Samples;Min_cycle;Max_cycle;Signal;HPM_P1;HPM_P2
2022/03/25 00:02:10;;;;;;;17.90;11.20;;;13.90;1.00;;;;;;5059075;28;20462;-76
2022/03/25 00:04:40;;;;;;;20.10;13.80;;;13.90;1.00;;;;;;5053508;28;20900;-75
2022/03/25 00:07:09;;;;;;;15.90;12.90;;;13.90;1.00;;;;;;5052711;28;20461;-75
2022/03/25 00:09:37;;;;;;;19.63;12.90;;;13.80;1.00;;;;;;5056439;28;20488;-75
2022/03/25 00:12:06;;;;;;;23.07;12.93;;;13.80;1.00;;;;;;5053272;28;21078;-76
2022/03/25 00:14:35;;;;;;;20.90;12.90;;;13.80;1.00;;;;;;5057090;28;20472;-76
2022/03/25 00:17:04;;;;;;;19.50;11.63;;;13.80;1.00;;;;;;5054946;28;20461;-76
2022/03/25 00:19:32;;;;;;;21.27;13.80;;;13.70;1.00;;;;;;5055522;28;21153;-75
2022/03/25 00:22:02;;;;;;;15.30;10.40;;;13.70;1.00;;;;;;5056918;28;20587;-77
2022/03/25 00:24:30;;;;;;;18.37;11.53;;;13.60;1.00;;;;;;5055769;28;20475;-75
2022/03/25 00:26:58;;;;;;;22.50;13.40;;;13.60;1.00;;;;;;5060491;28;20457;-75
2022/03/25 00:29:26;;;;;;;18.97;10.90;;;13.60;1.00;;;;;;5057146;28;20507;-75
2022/03/25 00:31:54;;;;;;;17.50;11.83;;;13.60;1.00;;;;;;5063231;28;20453;-75
2022/03/25 00:34:23;;;;;;;17.60;11.37;;;13.60;1.00;;;;;;5061338;28;20488;-76
2022/03/25 00:36:51;;;;;;;19.33;10.90;;;13.50;1.00;;;;;;5061818;28;20458;-75
2022/03/25 00:39:20;;;;;;;18.50;11.83;;;13.60;1.00;;;;;;5060311;28;20511;-77
2022/03/25 00:41:49;;;;;;;22.73;11.63;;;13.50;1.00;;;;;;5060259;28;20553;-75
2022/03/25 00:44:18;;;;;;;17.00;10.83;;;13.40;1.00;;;;;;5057640;28;20453;-76
2022/03/25 00:46:46;;;;;;;16.60;11.60;;;13.30;1.00;;;;;;5060111;28;20446;-76
2022/03/25 00:49:14;;;;;;;25.73;11.77;;;13.30;1.00;;;;;;5060844;28;20853;-76
2022/03/25 00:51:43;;;;;;;21.53;10.67;;;13.30;1.00;;;;;;5058641;28;20457;-77
2022/03/25 00:54:11;;;;;;;14.90;11.00;;;13.20;1.00;;;;;;5060543;28;20554;-75
2022/03/25 00:56:41;;;;;;;17.60;10.57;;;13.20;1.00;;;;;;5061368;28;20446;-76
2022/03/25 00:59:09;;;;;;;14.00;10.13;;;13.20;1.00;;;;;;5059478;28;20480;-76
2022/03/25 01:01:38;;;;;;;17.43;11.50;;;13.10;1.00;;;;;;5062407;28;21202;-76
2022/03/25 01:04:07;;;;;;;17.67;10.57;;;13.10;1.00;;;;;;5056528;28;20500;-76
2022/03/25 01:06:35;;;;;;;19.90;12.00;;;13.10;1.00;;;;;;5056644;28;20449;-76
2022/03/25 01:09:04;;;;;;;17.53;11.13;;;13.10;1.00;;;;;;5061989;28;20487;-76
2022/03/25 01:11:35;;;;;;;17.60;11.10;;;13.10;1.00;;;;;;5058239;28;20505;-76
2022/03/25 01:14:06;;;;;;;20.47;12.50;;;13.20;1.00;;;;;;5060848;28;20492;-76
2022/03/25 01:16:35;;;;;;;17.80;10.47;;;13.10;1.00;;;;;;5063551;28;20453;-77
2022/03/25 01:19:04;;;;;;;19.07;11.40;;;13.10;1.00;;;;;;5061156;28;20490;-77
2022/03/25 01:21:32;;;;;;;19.23;12.17;;;13.00;1.00;;;;;;5054387;28;20831;-76
2022/03/25 01:24:00;;;;;;;17.63;11.13;;;12.90;1.00;;;;;;5059962;28;20523;-76
2022/03/25 01:26:28;;;;;;;18.97;11.70;;;12.90;1.00;;;;;;5061430;28;20538;-76
2022/03/25 01:28:57;;;;;;;17.17;11.77;;;12.90;1.00;;;;;;5059064;28;20471;-76
2022/03/25 01:31:26;;;;;;;18.30;11.30;;;12.80;1.00;;;;;;5061577;28;20457;-75
2022/03/25 01:33:55;;;;;;;18.23;10.60;;;12.80;1.00;;;;;;5060374;28;20499;-75
2022/03/25 01:36:23;;;;;;;19.67;11.77;;;12.80;1.00;;;;;;5060579;28;20463;-76
2022/03/25 01:38:51;;;;;;;17.07;10.77;;;12.90;1.00;;;;;;5058174;28;20894;-76
2022/03/25 01:41:20;;;;;;;20.53;11.87;;;12.90;1.00;;;;;;5055365;28;20464;-76
2022/03/25 01:43:54;;;;;;;15.10;10.50;;;12.80;1.00;;;;;;5059964;28;20463;-76
2022/03/25 01:46:23;;;;;;;16.63;10.60;;;12.70;1.00;;;;;;5057342;28;20447;-77
2022/03/25 01:48:53;;;;;;;16.77;11.00;;;12.60;1.00;;;;;;5058980;28;20460;-77
2022/03/25 01:51:26;;;;;;;19.20;11.47;;;12.60;1.00;;;;;;5057491;28;20483;-77
2022/03/25 01:53:55;;;;;;;17.37;10.50;;;12.70;1.00;;;;;;5057943;28;20486;-76
2022/03/25 01:56:24;;;;;;;19.53;11.13;;;12.70;1.00;;;;;;5061903;28;20949;-77
2022/03/25 01:58:52;;;;;;;16.27;11.83;;;12.70;1.00;;;;;;5064786;28;20480;-76
2022/03/25 02:01:21;;;;;;;15.87;10.97;;;12.60;1.00;;;;;;5061597;28;20467;-77
2022/03/25 02:03:49;;;;;;;18.57;11.80;;;12.60;1.00;;;;;;5055345;28;20441;-76
2022/03/25 02:06:19;;;;;;;14.93;10.10;;;12.60;1.00;;;;;;5056339;28;20998;-76
2022/03/25 02:08:47;;;;;;;14.90;11.03;;;12.50;1.00;;;;;;5060026;28;20483;-77
2022/03/25 02:11:16;;;;;;;23.17;11.93;;;12.50;1.00;;;;;;5059309;28;20452;-75
2022/03/25 02:13:45;;;;;;;17.57;11.17;;;12.50;1.00;;;;;;5061715;28;20456;-76
2022/03/25 02:16:13;;;;;;;19.03;12.10;;;12.50;1.00;;;;;;5057278;28;20507;-75
2022/03/25 02:18:41;;;;;;;15.40;12.17;;;12.50;1.00;;;;;;5055120;28;20558;-74
2022/03/25 02:21:09;;;;;;;14.93;9.20;;;12.50;1.00;;;;;;5058384;28;20443;-76
2022/03/25 02:23:39;;;;;;;15.63;10.40;;;12.40;1.00;;;;;;5072109;28;20472;-76
2022/03/25 02:26:07;;;;;;;19.83;13.57;;;12.40;1.00;;;;;;5060040;28;20538;-75
2022/03/25 02:28:36;;;;;;;17.90;11.77;;;12.30;1.00;;;;;;5055463;28;20861;-75
2022/03/25 02:31:04;;;;;;;17.70;11.30;;;12.30;1.00;;;;;;5058990;28;20542;-76
2022/03/25 02:33:32;;;;;;;17.00;11.50;;;12.10;1.00;;;;;;5059511;28;20458;-76
2022/03/25 02:36:00;;;;;;;17.93;12.40;;;12.10;1.00;;;;;;5056676;28;20838;-76
2022/03/25 02:38:28;;;;;;;16.10;11.43;;;12.10;1.00;;;;;;5060840;28;20479;-75
2022/03/25 02:40:58;;;;;;;15.77;10.37;;;12.10;1.00;;;;;;5062001;28;21123;-76
2022/03/25 02:43:26;;;;;;;20.57;11.00;;;12.20;1.00;;;;;;5059083;28;21022;-76
2022/03/25 02:45:54;;;;;;;14.93;10.73;;;12.20;1.00;;;;;;5060032;28;20458;-76
2022/03/25 02:48:22;;;;;;;21.40;11.30;;;12.10;1.00;;;;;;5060374;28;20495;-75
2022/03/25 02:50:50;;;;;;;21.97;12.00;;;12.10;1.00;;;;;;5060291;28;20457;-76
2022/03/25 02:53:19;;;;;;;19.77;10.90;;;12.10;1.00;;;;;;5060324;28;20451;-77
2022/03/25 02:55:47;;;;;;;20.20;11.50;;;12.20;1.00;;;;;;5062194;28;20492;-78
2022/03/25 02:58:18;;;;;;;16.77;11.80;;;12.20;1.00;;;;;;5061693;28;20506;-76
2022/03/25 03:00:46;;;;;;;14.83;11.07;;;12.10;1.00;;;;;;5055487;28;20487;-76
2022/03/25 03:03:14;;;;;;;15.63;11.50;;;12.30;1.00;;;;;;5056393;28;20449;-77
2022/03/25 03:05:43;;;;;;;16.20;11.60;;;12.10;1.00;;;;;;5057033;28;20455;-77
2022/03/25 03:08:12;;;;;;;17.20;10.70;;;12.00;1.00;;;;;;5055812;28;20483;-77
2022/03/25 03:10:42;;;;;;;14.67;10.40;;;12.00;1.00;;;;;;5058003;28;20464;-76
2022/03/25 03:13:10;;;;;;;15.53;10.97;;;12.00;1.00;;;;;;5053785;28;20508;-76
2022/03/25 03:15:40;;;;;;;15.63;10.93;;;12.00;1.00;;;;;;5058801;28;20886;-77
2022/03/25 03:18:09;;;;;;;15.40;9.87;;;12.00;1.00;;;;;;5059106;28;20476;-76
2022/03/25 03:20:38;;;;;;;17.40;11.30;;;11.90;1.00;;;;;;5062381;28;20458;-77
2022/03/25 03:23:07;;;;;;;17.90;11.17;;;11.90;1.00;;;;;;5055412;28;20457;-76
2022/03/25 03:25:35;;;;;;;23.57;11.07;;;12.00;1.00;;;;;;5059705;28;20456;-77
2022/03/25 03:28:04;;;;;;;15.37;11.23;;;12.10;1.00;;;;;;5056330;28;20489;-76
2022/03/25 03:30:33;;;;;;;21.30;11.47;;;11.90;1.00;;;;;;5057234;28;20459;-77
2022/03/25 03:33:04;;;;;;;17.07;11.03;;;11.80;1.00;;;;;;5058867;28;20513;-76
2022/03/25 03:35:34;;;;;;;18.00;10.47;;;11.80;1.00;;;;;;5056281;28;21319;-75
2022/03/25 03:38:03;;;;;;;17.23;11.07;;;11.80;1.00;;;;;;5057298;28;20471;-76
2022/03/25 03:40:32;;;;;;;17.20;11.63;;;11.80;1.00;;;;;;5061174;28;20456;-76
2022/03/25 03:43:00;;;;;;;14.33;10.67;;;11.70;1.00;;;;;;5058668;28;20867;-77
2022/03/25 03:45:29;;;;;;;19.03;11.33;;;11.70;1.00;;;;;;5060736;28;20454;-77
2022/03/25 03:47:57;;;;;;;15.07;10.43;;;11.60;1.00;;;;;;5058074;28;20485;-76
2022/03/25 03:50:26;;;;;;;16.77;11.80;;;11.70;1.00;;;;;;5056469;28;21242;-76
2022/03/25 03:52:54;;;;;;;14.30;10.30;;;11.60;1.00;;;;;;5060749;28;20466;-77
2022/03/25 03:55:22;;;;;;;17.40;11.27;;;11.60;1.00;;;;;;5056408;28;20531;-77
2022/03/25 03:57:51;;;;;;;15.83;10.80;;;11.60;1.00;;;;;;5059289;28;21132;-77
2022/03/25 04:00:20;;;;;;;17.87;10.73;;;11.60;1.00;;;;;;5055833;28;20448;-77
2022/03/25 04:02:48;;;;;;;15.53;10.20;;;11.60;1.00;;;;;;5065321;28;20484;-78
2022/03/25 04:05:17;;;;;;;16.10;10.03;;;11.60;1.00;;;;;;5063518;28;20451;-77
2022/03/25 04:07:48;;;;;;;15.73;10.93;;;11.60;1.00;;;;;;5063120;28;20582;-76
2022/03/25 04:10:18;;;;;;;18.27;12.03;;;11.60;1.00;;;;;;5062535;28;20451;-76
2022/03/25 04:12:46;;;;;;;15.33;9.80;;;11.60;1.00;;;;;;5064712;28;20450;-76
2022/03/25 04:15:16;;;;;;;16.47;10.87;;;11.50;1.00;;;;;;5059515;28;20503;-76
2022/03/25 04:17:45;;;;;;;14.13;10.33;;;11.50;1.00;;;;;;5064311;28;20488;-76
2022/03/25 04:20:15;;;;;;;18.03;10.83;;;11.40;1.00;;;;;;5061198;28;20962;-78
2022/03/25 04:22:44;;;;;;;15.30;10.60;;;11.30;1.00;;;;;;5059892;28;20458;-77
2022/03/25 04:25:15;;;;;;;18.37;11.47;;;11.30;1.00;;;;;;5062494;28;20885;-77
2022/03/25 04:27:47;;;;;;;17.87;10.00;;;11.40;1.00;;;;;;5063437;28;20478;-76
2022/03/25 04:30:19;;;;;;;16.30;11.57;;;11.40;1.00;;;;;;5062969;28;20457;-76
2022/03/25 04:32:47;;;;;;;16.33;10.30;;;11.40;1.00;;;;;;5058586;28;20454;-77
2022/03/25 04:35:15;;;;;;;16.90;10.20;;;11.30;1.00;;;;;;5062975;28;20467;-75
2022/03/25 04:37:44;;;;;;;18.23;10.80;;;11.20;1.00;;;;;;5064797;28;21005;-75
2022/03/25 04:40:17;;;;;;;17.03;10.50;;;11.20;1.00;;;;;;5060122;28;20977;-75
2022/03/25 04:42:45;;;;;;;13.17;9.07;;;11.30;1.00;;;;;;5062956;28;20461;-77
2022/03/25 04:45:14;;;;;;;16.40;10.30;;;11.20;1.00;;;;;;5060244;28;20474;-76
2022/03/25 04:47:42;;;;;;;14.87;10.57;;;11.20;1.00;;;;;;5056649;28;20466;-77
2022/03/25 04:50:12;;;;;;;16.67;9.63;;;11.20;1.00;;;;;;5065018;28;20474;-77
2022/03/25 04:52:40;;;;;;;17.00;9.93;;;11.30;1.00;;;;;;5062166;28;20491;-75
2022/03/25 04:55:17;;;;;;;12.50;9.40;;;11.30;1.00;;;;;;5056037;28;20452;-75
2022/03/25 04:57:46;;;;;;;15.40;10.53;;;11.20;1.00;;;;;;5063049;28;20473;-75
2022/03/25 05:00:16;;;;;;;14.93;9.83;;;11.20;1.00;;;;;;5060748;28;20462;-76
2022/03/25 05:02:45;;;;;;;18.50;10.03;;;11.20;1.00;;;;;;5059099;28;20444;-76
2022/03/25 05:05:14;;;;;;;19.07;10.07;;;11.20;1.00;;;;;;5061545;28;20457;-76
2022/03/25 05:07:43;;;;;;;16.63;10.23;;;11.10;1.00;;;;;;5057281;28;20491;-76
2022/03/25 05:10:13;;;;;;;17.47;9.67;;;11.10;1.00;;;;;;5061069;28;20460;-76
2022/03/25 05:12:44;;;;;;;19.43;10.00;;;11.00;1.00;;;;;;5055159;28;20451;-75
2022/03/25 05:15:13;;;;;;;11.30;9.47;;;11.10;1.00;;;;;;5061708;28;20478;-75
2022/03/25 05:17:46;;;;;;;15.30;9.97;;;11.00;1.00;;;;;;5057109;28;20519;-75
2022/03/25 05:20:16;;;;;;;17.10;10.77;;;11.00;1.00;;;;;;5058875;28;21046;-76
2022/03/25 05:22:45;;;;;;;15.40;10.33;;;11.00;1.00;;;;;;5058042;28;20450;-76
2022/03/25 05:25:13;;;;;;;15.23;9.80;;;10.90;1.00;;;;;;5061117;28;20455;-75
2022/03/25 05:27:50;;;;;;;16.07;9.67;;;10.90;1.00;;;;;;5062863;28;20463;-76
2022/03/25 05:30:22;;;;;;;13.73;9.90;;;10.80;1.00;;;;;;5059429;28;20462;-76
2022/03/25 05:32:51;;;;;;;18.13;10.27;;;10.90;1.00;;;;;;5058776;28;20472;-76
2022/03/25 05:35:20;;;;;;;18.67;11.57;;;11.00;1.00;;;;;;5055161;28;20455;-75
2022/03/25 05:37:49;;;;;;;16.87;10.37;;;10.90;1.00;;;;;;5057557;28;20476;-76
2022/03/25 05:40:18;;;;;;;19.13;11.77;;;10.80;1.00;;;;;;5053895;28;20447;-76
2022/03/25 05:42:49;;;;;;;16.43;10.37;;;10.70;1.00;;;;;;5057505;28;20565;-74
2022/03/25 05:45:19;;;;;;;16.60;10.90;;;10.70;1.00;;;;;;5058783;28;20456;-75
2022/03/25 05:47:49;;;;;;;17.45;13.05;;;10.80;1.00;;;;;;5050786;28;20938;-77
2022/03/25 05:50:18;;;;;;;16.20;11.50;;;10.90;1.00;;;;;;5058141;28;20698;-74
2022/03/25 05:52:46;;;;;;;20.27;11.00;;;11.10;1.00;;;;;;5059883;28;20466;-74
2022/03/25 05:55:14;;;;;;;16.07;10.13;;;11.00;1.00;;;;;;5052133;28;20525;-74
2022/03/25 05:57:42;;;;;;;24.97;12.77;;;10.90;1.00;;;;;;5058969;28;20494;-74
2022/03/25 06:00:14;;;;;;;16.17;10.90;;;10.90;1.00;;;;;;5055496;28;20447;-74
2022/03/25 06:02:43;;;;;;;16.13;12.40;;;11.00;1.00;;;;;;5058484;28;20450;-74
2022/03/25 06:05:12;;;;;;;18.87;11.50;;;10.90;1.00;;;;;;5056131;28;20513;-74
2022/03/25 06:07:42;;;;;;;17.80;12.00;;;11.00;1.00;;;;;;5055710;28;20586;-75
2022/03/25 06:10:12;;;;;;;20.87;10.20;;;11.00;1.00;;;;;;5057581;28;20207;-74
2022/03/25 06:12:40;;;;;;;18.90;10.87;;;10.80;1.00;;;;;;5058361;28;20980;-74
2022/03/25 06:15:10;;;;;;;17.57;11.30;;;10.80;1.00;;;;;;5051593;28;21126;-75
2022/03/25 06:17:46;;;;;;;17.23;11.80;;;10.90;1.00;;;;;;5054837;28;20590;-73
2022/03/25 06:20:17;;;;;;;16.57;11.53;;;10.90;1.00;;;;;;5057463;28;20470;-73
2022/03/25 06:22:47;;;;;;;15.20;11.70;;;10.80;1.00;;;;;;5062426;28;20551;-75
2022/03/25 06:25:15;;;;;;;20.00;11.53;;;10.90;1.00;;;;;;5056386;28;20462;-75
2022/03/25 06:27:51;;;;;;;17.77;10.87;;;11.00;1.00;;;;;;5056987;28;20518;-76
2022/03/25 06:30:21;;;;;;;17.53;11.40;;;11.10;1.00;;;;;;5059015;28;20452;-75
2022/03/25 06:32:51;;;;;;;15.67;9.83;;;11.20;1.00;;;;;;5059471;28;20932;-76
2022/03/25 06:35:21;;;;;;;20.40;13.07;;;11.40;1.00;;;;;;5064498;28;20940;-75
2022/03/25 06:37:49;;;;;;;14.53;11.07;;;11.50;1.00;;;;;;5063486;28;20471;-74
2022/03/25 06:40:17;;;;;;;14.83;10.97;;;11.70;1.00;;;;;;5065669;28;20450;-74
2022/03/25 06:42:46;;;;;;;19.63;10.57;;;11.80;1.00;;;;;;5055241;28;20456;-74
2022/03/25 06:45:16;;;;;;;20.33;12.90;;;11.90;1.00;;;;;;5062696;28;20459;-75
2022/03/25 06:47:45;;;;;;;19.30;12.20;;;12.00;1.00;;;;;;5057369;28;20480;-75
2022/03/25 06:50:16;;;;;;;17.20;10.70;;;12.10;1.00;;;;;;5057593;28;20516;-74
2022/03/25 06:52:46;;;;;;;15.93;10.70;;;12.10;1.00;;;;;;5061451;28;20551;-75
2022/03/25 06:55:16;;;;;;;14.97;10.60;;;12.20;1.00;;;;;;5051958;28;20459;-75
2022/03/25 06:57:48;;;;;;;17.53;11.50;;;12.30;1.00;;;;;;5062055;28;20483;-75
2022/03/25 07:00:17;;;;;;;20.17;11.23;;;12.30;1.00;;;;;;5062346;28;20478;-74
2022/03/25 07:02:46;;;;;;;16.70;12.53;;;12.50;1.00;;;;;;5060497;28;20462;-75
2022/03/25 07:05:16;;;;;;;18.05;12.20;;;12.50;1.00;;;;;;5056203;28;20477;-74
2022/03/25 07:07:45;;;;;;;17.87;11.70;;;12.50;1.00;;;;;;5055265;28;20218;-74
2022/03/25 07:10:15;;;;;;;18.47;11.97;;;12.50;1.00;;;;;;5061032;28;20455;-76
2022/03/25 07:12:45;;;;;;;24.07;12.33;;;12.50;1.00;;;;;;5057119;28;20463;-76
2022/03/25 07:15:14;;;;;;;23.73;12.83;;;12.60;1.00;;;;;;5059013;28;20842;-75
2022/03/25 07:17:43;;;;;;;24.77;13.07;;;12.60;1.00;;;;;;5058456;28;20526;-75
2022/03/25 07:20:13;;;;;;;17.63;12.37;;;12.80;1.00;;;;;;5059004;28;20442;-74
2022/03/25 07:22:44;;;;;;;22.07;12.30;;;12.90;1.00;;;;;;5058960;28;20490;-76
2022/03/25 07:25:13;;;;;;;19.87;11.70;;;13.00;1.00;;;;;;5057190;28;20478;-76
2022/03/25 07:27:42;;;;;;;20.30;13.27;;;13.00;1.00;;;;;;5058201;28;20465;-74
2022/03/25 07:30:12;;;;;;;20.77;13.90;;;13.10;1.00;;;;;;5058625;28;20462;-75
2022/03/25 07:32:40;;;;;;;21.37;12.20;;;13.20;1.00;;;;;;5055933;28;20454;-74
2022/03/25 07:35:10;;;;;;;21.07;11.87;;;13.30;1.00;;;;;;5057951;28;21020;-76
2022/03/25 07:37:39;;;;;;;23.23;13.83;;;13.30;1.00;;;;;;5062801;28;20487;-74
2022/03/25 07:40:10;;;;;;;20.27;14.03;;;13.40;1.00;;;;;;5064523;28;20460;-75
2022/03/25 07:42:39;;;;;;;24.53;12.27;;;13.50;1.00;;;;;;5063439;28;20447;-76
2022/03/25 07:45:10;;;;;;;20.57;12.70;;;13.60;1.00;;;;;;5064139;28;20560;-75
2022/03/25 07:47:40;;;;;;;25.37;14.50;;;13.80;1.00;;;;;;5056263;28;20852;-75
2022/03/25 07:50:10;;;;;;;24.73;14.00;;;13.90;1.00;;;;;;5054409;28;20449;-74
2022/03/25 07:52:38;;;;;;;20.13;13.70;;;13.90;1.00;;;;;;5061195;28;20536;-75
2022/03/25 07:55:10;;;;;;;19.90;13.07;;;14.10;1.00;;;;;;5056460;28;20462;-75
2022/03/25 07:57:38;;;;;;;18.90;13.47;;;14.20;1.00;;;;;;5062941;28;20484;-75
2022/03/25 08:00:11;;;;;;;22.90;13.20;;;14.40;1.00;;;;;;5058533;28;20484;-75
2022/03/25 08:02:40;;;;;;;22.77;13.13;;;14.60;1.00;;;;;;5060438;28;20901;-75
2022/03/25 08:05:11;;;;;;;19.10;13.03;;;14.80;1.00;;;;;;5065923;28;20491;-75
2022/03/25 08:07:44;;;;;;;19.23;13.27;;;15.00;1.00;;;;;;5065264;28;20847;-76
2022/03/25 08:10:16;;;;;;;22.23;13.90;;;15.30;1.00;;;;;;5060822;28;20460;-76
2022/03/25 08:12:44;;;;;;;22.90;13.50;;;15.50;1.00;;;;;;5063127;28;20981;-76
2022/03/25 08:15:13;;;;;;;21.53;12.37;;;15.70;1.00;;;;;;5064093;28;20469;-76
2022/03/25 08:17:48;;;;;;;28.27;13.20;;;15.90;1.00;;;;;;5059447;28;20483;-75
2022/03/25 08:20:25;;;;;;;25.83;13.17;;;16.10;1.00;;;;;;5060504;28;20478;-75
2022/03/25 08:22:54;;;;;;;19.53;12.20;;;16.30;1.00;;;;;;5062314;28;20457;-75
2022/03/25 08:28:10;;;;;;;25.15;15.93;;;16.60;1.00;;;;;;5057027;28;20437;-76
2022/03/25 08:30:38;;;;;;;31.40;15.90;;;16.60;1.00;;;;;;5061631;28;20228;-75
2022/03/25 08:33:07;;;;;;;21.80;14.07;;;16.70;1.00;;;;;;5061803;28;21057;-75
2022/03/25 08:35:37;;;;;;;19.73;14.23;;;16.70;1.00;;;;;;5061773;28;20469;-75
2022/03/25 08:38:06;;;;;;;21.13;14.23;;;16.70;1.00;;;;;;5061334;28;21035;-75
2022/03/25 08:40:37;;;;;;;19.53;14.00;;;16.80;1.00;;;;;;5063419;28;20502;-75
2022/03/25 08:43:26;;;;;;;24.90;14.13;;;16.90;1.00;;;;;;5058476;28;20543;-76
2022/03/25 08:45:54;;;;;;;22.53;14.30;;;16.90;1.00;;;;;;5065417;28;20525;-75
2022/03/25 08:48:23;;;;;;;25.07;14.60;;;16.80;1.00;;;;;;5059096;28;21064;-75
2022/03/25 08:50:51;;;;;;;18.77;13.80;;;16.80;1.00;;;;;;5065996;28;20446;-78
2022/03/25 08:53:19;;;;;;;24.00;14.13;;;16.90;1.00;;;;;;5058574;28;20446;-76
2022/03/25 08:55:49;;;;;;;23.57;14.10;;;16.90;1.00;;;;;;5058465;28;20458;-75
2022/03/25 08:58:17;;;;;;;22.93;13.80;;;17.00;1.00;;;;;;5060047;28;20476;-75
2022/03/25 09:00:45;;;;;;;22.60;14.60;;;17.00;1.00;;;;;;5059945;28;20465;-75
2022/03/25 09:03:13;;;;;;;23.60;13.30;;;17.00;1.00;;;;;;5056806;28;20458;-75
2022/03/25 09:05:42;;;;;;;21.07;15.17;;;17.10;1.00;;;;;;5063212;28;20549;-75
2022/03/25 09:08:10;;;;;;;24.93;15.13;;;17.20;1.00;;;;;;5061767;28;20992;-75
2022/03/25 09:10:38;;;;;;;17.77;12.63;;;17.30;1.00;;;;;;5050095;28;20542;-76
2022/03/25 09:13:11;;;;;;;21.40;14.10;;;17.40;1.00;;;;;;5062231;28;20450;-76
2022/03/25 09:15:39;;;;;;;27.43;15.40;;;17.50;1.00;;;;;;5067378;28;20485;-77
2022/03/25 09:18:08;;;;;;;21.90;14.30;;;17.50;1.00;;;;;;5066734;28;20490;-78
2022/03/25 09:20:37;;;;;;;20.33;12.67;;;17.50;1.00;;;;;;5065557;28;20633;-75
2022/03/25 09:23:05;;;;;;;22.63;14.67;;;17.60;1.00;;;;;;5062082;28;20532;-76
2022/03/25 09:25:35;;;;;;;24.27;15.90;;;17.70;1.00;;;;;;5059644;28;20464;-75
2022/03/25 09:28:04;;;;;;;22.37;14.00;;;17.80;1.00;;;;;;5061341;28;20464;-76
2022/03/25 09:30:34;;;;;;;20.23;13.80;;;17.80;1.00;;;;;;5060035;28;20456;-75
2022/03/25 09:33:07;;;;;;;18.37;12.63;;;17.90;1.00;;;;;;5054765;28;20465;-74
2022/03/25 09:35:37;;;;;;;24.40;15.10;;;18.00;1.00;;;;;;5060106;28;20494;-77
2022/03/25 09:38:06;;;;;;;19.77;13.60;;;18.00;1.00;;;;;;5059641;28;20474;-74
2022/03/25 09:40:35;;;;;;;19.23;12.77;;;18.10;1.00;;;;;;5060536;28;20958;-75
2022/03/25 09:43:04;;;;;;;17.93;12.20;;;18.10;1.00;;;;;;5054719;28;20450;-75
2022/03/25 09:45:36;;;;;;;26.27;16.20;;;18.30;1.00;;;;;;5057762;28;20447;-76
2022/03/25 09:48:05;;;;;;;25.40;15.03;;;18.50;1.00;;;;;;5057483;28;20466;-75
2022/03/25 09:50:37;;;;;;;21.90;15.40;;;18.50;1.00;;;;;;5063638;28;20819;-75
2022/03/25 09:53:06;;;;;;;19.50;12.50;;;18.50;1.00;;;;;;5059459;28;20504;-75
2022/03/25 09:55:40;;;;;;;21.47;14.67;;;18.50;1.00;;;;;;5054537;28;20446;-75
2022/03/25 09:58:10;;;;;;;22.77;13.60;;;18.50;1.00;;;;;;5054797;28;20461;-75
2022/03/25 10:00:40;;;;;;;21.57;14.90;;;18.60;1.00;;;;;;5060227;28;20452;-76
2022/03/25 10:03:14;;;;;;;24.37;14.97;;;18.60;1.00;;;;;;5060206;28;20454;-75
2022/03/25 10:05:54;;;;;;;21.27;13.67;;;18.60;1.00;;;;;;5059609;28;20454;-75
2022/03/25 10:08:35;;;;;;;21.33;12.67;;;18.80;1.00;;;;;;5063034;28;20478;-76
2022/03/25 10:11:22;;;;;;;21.63;13.60;;;18.90;1.00;;;;;;5057341;28;20446;-75
2022/03/25 10:14:11;;;;;;;21.93;12.90;;;18.90;1.00;;;;;;5062816;28;20460;-76
2022/03/25 10:16:40;;;;;;;18.37;12.13;;;18.90;1.00;;;;;;5060008;28;20442;-76
2022/03/25 10:19:09;;;;;;;14.23;11.27;;;19.10;1.00;;;;;;5057194;28;20475;-77
2022/03/25 10:21:51;;;;;;;18.60;12.07;;;19.20;1.00;;;;;;5062705;28;20442;-76
2022/03/25 10:24:36;;;;;;;17.40;13.38;;;19.30;1.00;;;;;;5054759;28;20442;-78
2022/03/25 10:27:14;;;;;;;17.93;12.10;;;19.60;1.00;;;;;;5059579;28;20204;-76
2022/03/25 10:29:45;;;;;;;13.17;10.67;;;19.60;1.00;;;;;;5059342;28;20470;-75
2022/03/25 10:32:18;;;;;;;15.83;10.80;;;19.70;1.00;;;;;;5060400;28;20477;-75
2022/03/25 10:35:02;;;;;;;16.23;11.57;;;19.60;1.00;;;;;;5058070;28;20450;-76
2022/03/25 10:37:31;;;;;;;14.13;10.47;;;19.70;1.00;;;;;;5057776;28;20448;-75
2022/03/25 10:39:59;;;;;;;16.00;11.13;;;19.70;1.00;;;;;;5051039;28;20486;-77
2022/03/25 10:42:27;;;;;;;14.03;10.20;;;19.80;1.00;;;;;;5058797;28;21231;-77
2022/03/25 10:44:59;;;;;;;16.17;11.43;;;19.80;1.00;;;;;;5060439;28;20452;-77
2022/03/25 10:47:29;;;;;;;16.50;12.20;;;19.90;1.00;;;;;;5052898;28;20451;-76
2022/03/25 10:50:13;;;;;;;20.17;12.40;;;20.00;1.00;;;;;;5058491;28;20519;-76
2022/03/25 10:52:42;;;;;;;16.53;11.47;;;19.90;1.00;;;;;;5057638;28;20459;-76
2022/03/25 10:55:23;;;;;;;14.90;11.70;;;20.00;1.00;;;;;;5059613;28;20952;-76
2022/03/25 10:57:55;;;;;;;12.60;10.00;;;20.10;1.00;;;;;;5055705;28;20477;-75
2022/03/25 11:00:24;;;;;;;17.23;12.10;;;20.20;1.00;;;;;;5060840;28;20500;-76
2022/03/25 11:02:55;;;;;;;17.30;12.60;;;20.20;1.00;;;;;;5055154;28;20557;-75
2022/03/25 11:05:26;;;;;;;16.47;12.50;;;20.20;1.00;;;;;;5058902;28;20490;-75
2022/03/25 11:07:56;;;;;;;16.80;13.37;;;20.20;1.00;;;;;;5056979;28;20431;-77
2022/03/25 11:10:24;;;;;;;18.50;13.63;;;20.30;1.00;;;;;;5057708;28;20446;-77
2022/03/25 11:12:52;;;;;;;20.50;13.17;;;20.30;1.00;;;;;;5059134;28;20441;-77
2022/03/25 11:15:21;;;;;;;19.67;14.13;;;20.40;1.00;;;;;;5059668;28;20459;-76
2022/03/25 11:17:50;;;;;;;20.10;15.30;;;20.40;1.00;;;;;;5064607;28;20461;-76
2022/03/25 11:20:22;;;;;;;19.10;13.30;;;20.40;1.00;;;;;;5066652;28;20569;-75
2022/03/25 11:23:02;;;;;;;17.73;12.07;;;20.30;1.00;;;;;;5065375;28;20498;-76
2022/03/25 11:25:35;;;;;;;20.27;13.80;;;20.40;1.00;;;;;;5060527;28;20511;-76
2022/03/25 11:28:11;;;;;;;20.60;12.30;;;20.40;1.00;;;;;;5057060;28;20487;-76
2022/03/25 11:30:40;;;;;;;21.00;12.97;;;20.30;1.00;;;;;;5055530;28;20877;-75
2022/03/25 11:33:10;;;;;;;19.40;13.27;;;20.40;1.00;;;;;;5063859;28;20469;-76
2022/03/25 11:35:41;;;;;;;21.67;13.60;;;20.50;1.00;;;;;;5065016;28;20476;-75
2022/03/25 11:38:22;;;;;;;20.87;13.43;;;20.50;1.00;;;;;;5062859;28;20894;-77
2022/03/25 11:40:52;;;;;;;21.20;13.97;;;20.40;1.00;;;;;;5060004;28;20624;-76
2022/03/25 11:43:22;;;;;;;17.73;13.10;;;20.30;1.00;;;;;;5056969;28;20805;-76
2022/03/25 11:46:06;;;;;;;18.10;13.93;;;20.20;1.00;;;;;;5060780;28;20504;-76
2022/03/25 11:48:42;;;;;;;19.63;12.50;;;20.20;1.00;;;;;;5055890;28;21113;-77
2022/03/25 11:51:35;;;;;;;19.30;12.53;;;20.20;1.00;;;;;;5058980;28;20446;-77
2022/03/25 11:54:33;;;;;;;20.47;14.33;;;20.30;1.00;;;;;;5052270;28;21092;-78
2022/03/25 11:57:04;;;;;;;17.60;11.40;;;20.40;1.00;;;;;;5052823;28;20447;-76
2022/03/25 11:59:48;;;;;;;15.75;12.52;;;20.50;1.00;;;;;;5059969;28;20438;-77
2022/03/25 12:02:31;;;;;;;18.90;13.70;;;20.70;1.00;;;;;;5055812;28;20193;-75
2022/03/25 12:05:01;;;;;;;15.23;11.37;;;20.60;1.00;;;;;;5055453;28;20454;-76
2022/03/25 12:07:31;;;;;;;20.17;13.40;;;20.70;1.00;;;;;;5055318;28;21193;-75
2022/03/25 12:09:59;;;;;;;16.10;11.87;;;20.70;1.00;;;;;;5059668;28;20434;-75
2022/03/25 12:12:55;;;;;;;16.53;11.90;;;20.70;1.00;;;;;;5056879;28;20459;-75
2022/03/25 12:15:41;;;;;;;14.90;11.17;;;20.70;1.00;;;;;;5053026;28;20627;-75
2022/03/25 12:18:40;;;;;;;17.27;12.93;;;20.80;1.00;;;;;;5053926;28;20517;-75
2022/03/25 12:21:13;;;;;;;15.80;11.63;;;20.80;1.00;;;;;;5054599;28;20505;-77
2022/03/25 12:23:56;;;;;;;17.30;12.37;;;20.80;1.00;;;;;;5055111;28;20460;-75
2022/03/25 12:26:31;;;;;;;15.47;12.33;;;20.80;1.00;;;;;;5056339;28;20455;-76
2022/03/25 12:28:59;;;;;;;17.80;12.20;;;20.80;1.00;;;;;;5057074;28;20480;-75
2022/03/25 12:31:28;;;;;;;16.47;12.07;;;20.90;1.00;;;;;;5060191;28;20453;-75
2022/03/25 12:33:58;;;;;;;16.30;12.27;;;21.00;1.00;;;;;;5066614;28;20500;-76
2022/03/25 12:36:28;;;;;;;14.63;12.03;;;21.00;1.00;;;;;;5063988;28;20445;-75
2022/03/25 12:38:57;;;;;;;14.77;10.63;;;21.00;1.00;;;;;;5060063;28;21014;-75
2022/03/25 12:41:27;;;;;;;16.00;11.37;;;21.00;1.00;;;;;;5060218;28;20486;-75
2022/03/25 12:44:16;;;;;;;17.03;11.40;;;21.10;1.00;;;;;;5055959;28;20969;-75
2022/03/25 12:46:44;;;;;;;18.50;11.40;;;21.20;1.00;;;;;;5061673;28;20454;-76
2022/03/25 12:49:13;;;;;;;16.23;11.70;;;21.20;1.00;;;;;;5063150;28;20498;-76
2022/03/25 12:51:41;;;;;;;17.47;12.43;;;21.20;3.90;;;;;;5051346;28;20486;-77
2022/03/25 12:54:17;;;;;;;14.77;12.60;;;21.30;1.00;;;;;;5054079;28;20446;-76
2022/03/25 12:56:54;;;;;;;20.30;12.47;;;21.40;1.00;;;;;;5056625;28;20453;-75
2022/03/25 12:59:54;;;;;;;17.23;13.47;;;21.40;1.00;;;;;;5055226;28;20520;-76